sensor_id;sensor_type;location;lat;lon;timestamp;temperature;humidity
4308;DHT22;2167;53.448;9.984;2023-04-03T00:01:01;3.20;6.60
4308;DHT22;2167;53.448;9.984;2023-04-03T00:03:26;3.20;6.70
4308;DHT22;2167;53.448;9.984;2023-04-03T00:06:09;3.20;6.60
4308;DHT22;2167;53.448;9.984;2023-04-03T00:08:38;3.20;6.40
4308;DHT22;2167;53.448;9.984;2023-04-03T00:11:04;3.20;6.70
4308;DHT22;2167;53.448;9.984;2023-04-03T00:13:31;3.30;6.80
4308;DHT22;2167;53.448;9.984;2023-04-03T00:15:57;3.30;5.80
4308;DHT22;2167;53.448;9.984;2023-04-03T00:18:22;3.20;4.50
4308;DHT22;2167;53.448;9.984;2023-04-03T00:20:48;3.10;4.30
4308;DHT22;2167;53.448;9.984;2023-04-03T00:23:14;3.00;3.60
4308;DHT22;2167;53.448;9.984;2023-04-03T00:25:41;3.00;3.50
4308;DHT22;2167;53.448;9.984;2023-04-03T00:28:06;2.90;3.50
4308;DHT22;2167;53.448;9.984;2023-04-03T00:30:32;2.90;3.10
4308;DHT22;2167;53.448;9.984;2023-04-03T00:32:58;2.70;3.00
4308;DHT22;2167;53.448;9.984;2023-04-03T00:35:26;2.70;3.40
4308;DHT22;2167;53.448;9.984;2023-04-03T00:37:53;2.60;4.10
4308;DHT22;2167;53.448;9.984;2023-04-03T00:40:23;2.60;4.50
4308;DHT22;2167;53.448;9.984;2023-04-03T00:42:52;2.60;4.70
4308;DHT22;2167;53.448;9.984;2023-04-03T00:45:38;2.60;5.30
4308;DHT22;2167;53.448;9.984;2023-04-03T00:48:07;2.60;5.60
4308;DHT22;2167;53.448;9.984;2023-04-03T00:50:37;2.60;5.60
4308;DHT22;2167;53.448;9.984;2023-04-03T00:53:06;2.50;5.70
4308;DHT22;2167;53.448;9.984;2023-04-03T00:55:35;2.50;5.70
4308;DHT22;2167;53.448;9.984;2023-04-03T00:58:01;2.40;5.80
4308;DHT22;2167;53.448;9.984;2023-04-03T01:00:27;2.40;5.90
4308;DHT22;2167;53.448;9.984;2023-04-03T01:02:53;2.50;6.70
4308;DHT22;2167;53.448;9.984;2023-04-03T01:05:20;2.50;6.40
4308;DHT22;2167;53.448;9.984;2023-04-03T01:07:47;2.50;5.80
4308;DHT22;2167;53.448;9.984;2023-04-03T01:10:15;2.40;5.20
4308;DHT22;2167;53.448;9.984;2023-04-03T01:12:44;2.30;5.20
4308;DHT22;2167;53.448;9.984;2023-04-03T01:15:14;2.30;5.30
4308;DHT22;2167;53.448;9.984;2023-04-03T01:25:39;2.10;6.40
4308;DHT22;2167;53.448;9.984;2023-04-03T01:28:06;2.10;6.50
4308;DHT22;2167;53.448;9.984;2023-04-03T01:30:35;2.10;6.60
4308;DHT22;2167;53.448;9.984;2023-04-03T01:33:02;2.10;6.70
4308;DHT22;2167;53.448;9.984;2023-04-03T01:35:28;2.00;6.60
4308;DHT22;2167;53.448;9.984;2023-04-03T01:37:54;1.90;6.90
4308;DHT22;2167;53.448;9.984;2023-04-03T01:40:19;1.90;6.90
4308;DHT22;2167;53.448;9.984;2023-04-03T01:42:45;1.90;7.10
4308;DHT22;2167;53.448;9.984;2023-04-03T01:45:10;1.90;7.20
4308;DHT22;2167;53.448;9.984;2023-04-03T01:47:36;1.90;7.40
4308;DHT22;2167;53.448;9.984;2023-04-03T01:50:02;1.80;7.50
4308;DHT22;2167;53.448;9.984;2023-04-03T01:52:27;1.80;8.10
4308;DHT22;2167;53.448;9.984;2023-04-03T01:54:53;1.80;8.60
4308;DHT22;2167;53.448;9.984;2023-04-03T01:57:19;1.80;8.60
4308;DHT22;2167;53.448;9.984;2023-04-03T01:59:44;1.70;8.70
4308;DHT22;2167;53.448;9.984;2023-04-03T02:02:10;1.70;8.70
4308;DHT22;2167;53.448;9.984;2023-04-03T02:04:37;1.60;8.90
4308;DHT22;2167;53.448;9.984;2023-04-03T02:07:03;1.60;9.00
4308;DHT22;2167;53.448;9.984;2023-04-03T02:09:29;1.50;9.40
4308;DHT22;2167;53.448;9.984;2023-04-03T02:11:54;1.50;9.30
4308;DHT22;2167;53.448;9.984;2023-04-03T02:14:20;1.40;9.60
4308;DHT22;2167;53.448;9.984;2023-04-03T02:16:47;1.30;10.10
4308;DHT22;2167;53.448;9.984;2023-04-03T02:19:13;1.20;10.70
4308;DHT22;2167;53.448;9.984;2023-04-03T02:21:38;1.20;11.50
4308;DHT22;2167;53.448;9.984;2023-04-03T02:24:04;1.20;12.10
4308;DHT22;2167;53.448;9.984;2023-04-03T02:26:30;1.20;12.00
4308;DHT22;2167;53.448;9.984;2023-04-03T02:28:56;1.20;12.20
4308;DHT22;2167;53.448;9.984;2023-04-03T02:31:22;1.10;12.50
4308;DHT22;2167;53.448;9.984;2023-04-03T02:33:48;1.10;12.90
4308;DHT22;2167;53.448;9.984;2023-04-03T02:36:13;1.00;12.80
4308;DHT22;2167;53.448;9.984;2023-04-03T02:38:39;1.00;12.90
4308;DHT22;2167;53.448;9.984;2023-04-03T02:41:07;1.00;13.50
4308;DHT22;2167;53.448;9.984;2023-04-03T02:43:34;0.90;13.50
4308;DHT22;2167;53.448;9.984;2023-04-03T02:45:59;0.90;14.30
4308;DHT22;2167;53.448;9.984;2023-04-03T02:48:26;0.90;14.80
4308;DHT22;2167;53.448;9.984;2023-04-03T02:50:51;1.00;14.60
4308;DHT22;2167;53.448;9.984;2023-04-03T02:53:18;0.90;14.60
4308;DHT22;2167;53.448;9.984;2023-04-03T02:55:44;0.90;14.90
4308;DHT22;2167;53.448;9.984;2023-04-03T02:58:10;0.80;14.90
4308;DHT22;2167;53.448;9.984;2023-04-03T03:00:35;0.80;15.80
4308;DHT22;2167;53.448;9.984;2023-04-03T03:03:01;0.80;16.30
4308;DHT22;2167;53.448;9.984;2023-04-03T03:05:27;0.80;16.80
4308;DHT22;2167;53.448;9.984;2023-04-03T03:07:54;0.80;17.00
4308;DHT22;2167;53.448;9.984;2023-04-03T03:10:21;0.90;17.20
4308;DHT22;2167;53.448;9.984;2023-04-03T03:12:47;0.90;16.90
4308;DHT22;2167;53.448;9.984;2023-04-03T03:15:12;0.90;16.80
4308;DHT22;2167;53.448;9.984;2023-04-03T03:17:38;0.90;16.40
4308;DHT22;2167;53.448;9.984;2023-04-03T03:20:05;0.90;16.10
4308;DHT22;2167;53.448;9.984;2023-04-03T03:22:32;0.80;16.10
4308;DHT22;2167;53.448;9.984;2023-04-03T03:24:58;0.80;16.10
4308;DHT22;2167;53.448;9.984;2023-04-03T03:27:24;0.80;16.50
4308;DHT22;2167;53.448;9.984;2023-04-03T03:29:50;0.80;16.90
4308;DHT22;2167;53.448;9.984;2023-04-03T03:32:15;0.80;16.80
4308;DHT22;2167;53.448;9.984;2023-04-03T03:34:41;0.80;16.80
4308;DHT22;2167;53.448;9.984;2023-04-03T03:37:06;0.80;16.90
4308;DHT22;2167;53.448;9.984;2023-04-03T03:39:32;0.70;16.50
4308;DHT22;2167;53.448;9.984;2023-04-03T03:41:57;0.70;17.40
4308;DHT22;2167;53.448;9.984;2023-04-03T03:44:23;0.70;17.50
4308;DHT22;2167;53.448;9.984;2023-04-03T03:46:48;0.70;17.80
4308;DHT22;2167;53.448;9.984;2023-04-03T03:49:14;0.70;17.90
4308;DHT22;2167;53.448;9.984;2023-04-03T03:51:40;0.60;18.00
4308;DHT22;2167;53.448;9.984;2023-04-03T03:54:06;0.60;18.10
4308;DHT22;2167;53.448;9.984;2023-04-03T03:56:33;0.70;18.10
4308;DHT22;2167;53.448;9.984;2023-04-03T03:58:59;0.60;17.20
4308;DHT22;2167;53.448;9.984;2023-04-03T04:01:25;0.60;17.20
4308;DHT22;2167;53.448;9.984;2023-04-03T04:03:51;0.60;17.20
4308;DHT22;2167;53.448;9.984;2023-04-03T04:06:17;0.50;17.60
4308;DHT22;2167;53.448;9.984;2023-04-03T04:08:43;0.60;17.70
4308;DHT22;2167;53.448;9.984;2023-04-03T04:11:09;0.50;17.40
4308;DHT22;2167;53.448;9.984;2023-04-03T04:13:35;0.50;17.40
4308;DHT22;2167;53.448;9.984;2023-04-03T04:16:02;0.50;17.90
4308;DHT22;2167;53.448;9.984;2023-04-03T04:18:28;0.50;17.80
4308;DHT22;2167;53.448;9.984;2023-04-03T04:20:53;0.50;18.30
4308;DHT22;2167;53.448;9.984;2023-04-03T04:23:19;0.60;17.80
4308;DHT22;2167;53.448;9.984;2023-04-03T04:25:45;0.60;17.30
4308;DHT22;2167;53.448;9.984;2023-04-03T04:28:11;0.50;17.40
4308;DHT22;2167;53.448;9.984;2023-04-03T04:30:37;0.50;17.50
4308;DHT22;2167;53.448;9.984;2023-04-03T04:33:03;0.50;17.70
4308;DHT22;2167;53.448;9.984;2023-04-03T04:35:29;0.50;17.30
4308;DHT22;2167;53.448;9.984;2023-04-03T04:37:54;0.40;17.50
4308;DHT22;2167;53.448;9.984;2023-04-03T04:40:20;0.30;17.80
4308;DHT22;2167;53.448;9.984;2023-04-03T04:42:46;0.30;18.70
4308;DHT22;2167;53.448;9.984;2023-04-03T04:45:12;0.40;19.50
4308;DHT22;2167;53.448;9.984;2023-04-03T04:47:37;0.40;19.20
4308;DHT22;2167;53.448;9.984;2023-04-03T04:50:03;0.40;19.00
4308;DHT22;2167;53.448;9.984;2023-04-03T04:52:29;0.40;18.40
4308;DHT22;2167;53.448;9.984;2023-04-03T04:54:55;0.40;18.30
4308;DHT22;2167;53.448;9.984;2023-04-03T04:57:21;0.30;18.20
4308;DHT22;2167;53.448;9.984;2023-04-03T04:59:46;0.30;18.40
4308;DHT22;2167;53.448;9.984;2023-04-03T05:02:12;0.30;18.10
4308;DHT22;2167;53.448;9.984;2023-04-03T05:04:37;0.20;18.00
4308;DHT22;2167;53.448;9.984;2023-04-03T05:07:03;0.20;18.30
4308;DHT22;2167;53.448;9.984;2023-04-03T05:09:29;0.20;18.30
4308;DHT22;2167;53.448;9.984;2023-04-03T05:11:55;0.10;18.30
4308;DHT22;2167;53.448;9.984;2023-04-03T05:14:21;0.10;18.70
4308;DHT22;2167;53.448;9.984;2023-04-03T05:16:47;0.10;19.20
4308;DHT22;2167;53.448;9.984;2023-04-03T05:19:13;0.20;19.00
4308;DHT22;2167;53.448;9.984;2023-04-03T05:21:38;0.10;19.20
4308;DHT22;2167;53.448;9.984;2023-04-03T05:24:04;0.10;19.30
4308;DHT22;2167;53.448;9.984;2023-04-03T05:26:31;0.10;19.90
4308;DHT22;2167;53.448;9.984;2023-04-03T05:28:57;0.00;20.50
4308;DHT22;2167;53.448;9.984;2023-04-03T05:31:23;0.10;21.20
4308;DHT22;2167;53.448;9.984;2023-04-03T05:33:48;0.10;21.20
4308;DHT22;2167;53.448;9.984;2023-04-03T05:36:14;0.10;21.60
4308;DHT22;2167;53.448;9.984;2023-04-03T05:38:40;0.10;22.20
4308;DHT22;2167;53.448;9.984;2023-04-03T05:41:06;0.10;21.60
4308;DHT22;2167;53.448;9.984;2023-04-03T05:43:32;0.10;21.60
4308;DHT22;2167;53.448;9.984;2023-04-03T05:46:00;0.10;21.70
4308;DHT22;2167;53.448;9.984;2023-04-03T05:48:25;0.20;21.90
4308;DHT22;2167;53.448;9.984;2023-04-03T05:50:51;0.20;21.90
4308;DHT22;2167;53.448;9.984;2023-04-03T05:53:29;0.20;22.00
4308;DHT22;2167;53.448;9.984;2023-04-03T05:55:56;0.30;21.90
4308;DHT22;2167;53.448;9.984;2023-04-03T05:58:22;0.30;21.90
4308;DHT22;2167;53.448;9.984;2023-04-03T06:00:47;0.40;22.10
4308;DHT22;2167;53.448;9.984;2023-04-03T06:03:13;0.50;21.90
4308;DHT22;2167;53.448;9.984;2023-04-03T06:05:39;0.60;21.80
4308;DHT22;2167;53.448;9.984;2023-04-03T06:08:08;0.70;22.20
4308;DHT22;2167;53.448;9.984;2023-04-03T06:10:35;0.80;22.30
4308;DHT22;2167;53.448;9.984;2023-04-03T06:13:01;0.80;22.40
4308;DHT22;2167;53.448;9.984;2023-04-03T06:15:27;0.90;22.80
4308;DHT22;2167;53.448;9.984;2023-04-03T06:17:53;1.00;22.90
4308;DHT22;2167;53.448;9.984;2023-04-03T06:20:19;1.20;23.10
4308;DHT22;2167;53.448;9.984;2023-04-03T06:22:44;1.20;23.00
4308;DHT22;2167;53.448;9.984;2023-04-03T06:25:11;1.30;23.00
4308;DHT22;2167;53.448;9.984;2023-04-03T06:27:37;1.40;22.80
4308;DHT22;2167;53.448;9.984;2023-04-03T06:30:04;1.60;22.40
4308;DHT22;2167;53.448;9.984;2023-04-03T06:32:30;1.70;22.20
4308;DHT22;2167;53.448;9.984;2023-04-03T06:34:56;1.70;21.60
4308;DHT22;2167;53.448;9.984;2023-04-03T06:37:23;1.90;21.20
4308;DHT22;2167;53.448;9.984;2023-04-03T06:39:51;2.00;20.20
4308;DHT22;2167;53.448;9.984;2023-04-03T06:42:17;2.10;19.60
4308;DHT22;2167;53.448;9.984;2023-04-03T06:44:43;2.20;19.50
4308;DHT22;2167;53.448;9.984;2023-04-03T06:47:12;2.30;18.80
4308;DHT22;2167;53.448;9.984;2023-04-03T06:49:38;2.40;16.40
4308;DHT22;2167;53.448;9.984;2023-04-03T06:52:03;2.50;15.90
4308;DHT22;2167;53.448;9.984;2023-04-03T06:54:30;2.60;15.30
4308;DHT22;2167;53.448;9.984;2023-04-03T06:56:56;2.70;14.30
4308;DHT22;2167;53.448;9.984;2023-04-03T06:59:22;2.80;13.50
4308;DHT22;2167;53.448;9.984;2023-04-03T07:01:47;2.90;13.20
4308;DHT22;2167;53.448;9.984;2023-04-03T07:04:15;3.00;12.00
4308;DHT22;2167;53.448;9.984;2023-04-03T07:06:41;3.10;11.60
4308;DHT22;2167;53.448;9.984;2023-04-03T07:09:09;3.30;10.10
4308;DHT22;2167;53.448;9.984;2023-04-03T07:11:35;3.30;8.90
4308;DHT22;2167;53.448;9.984;2023-04-03T07:14:04;3.40;8.50
4308;DHT22;2167;53.448;9.984;2023-04-03T07:16:32;3.50;8.30
4308;DHT22;2167;53.448;9.984;2023-04-03T07:18:57;3.60;8.20
4308;DHT22;2167;53.448;9.984;2023-04-03T07:21:23;3.70;7.00
4308;DHT22;2167;53.448;9.984;2023-04-03T07:23:49;3.80;6.90
4308;DHT22;2167;53.448;9.984;2023-04-03T07:26:16;3.80;6.80
4308;DHT22;2167;53.448;9.984;2023-04-03T07:28:41;3.90;6.30
4308;DHT22;2167;53.448;9.984;2023-04-03T07:31:11;4.00;5.90
4308;DHT22;2167;53.448;9.984;2023-04-03T07:33:39;4.10;5.30
4308;DHT22;2167;53.448;9.984;2023-04-03T07:36:06;4.20;5.30
4308;DHT22;2167;53.448;9.984;2023-04-03T07:38:33;4.30;4.70
4308;DHT22;2167;53.448;9.984;2023-04-03T07:40:59;4.40;3.50
4308;DHT22;2167;53.448;9.984;2023-04-03T07:43:25;4.40;2.10
4308;DHT22;2167;53.448;9.984;2023-04-03T07:45:51;4.50;1.00
4308;DHT22;2167;53.448;9.984;2023-04-03T07:48:23;4.50;1.00
4308;DHT22;2167;53.448;9.984;2023-04-03T07:50:50;4.70;1.00
4308;DHT22;2167;53.448;9.984;2023-04-03T07:53:16;4.70;1.00
4308;DHT22;2167;53.448;9.984;2023-04-03T07:55:42;4.70;1.00
4308;DHT22;2167;53.448;9.984;2023-04-03T07:58:12;4.80;1.00
4308;DHT22;2167;53.448;9.984;2023-04-03T08:00:38;4.90;1.00
4308;DHT22;2167;53.448;9.984;2023-04-03T08:03:05;4.90;1.00
4308;DHT22;2167;53.448;9.984;2023-04-03T08:05:31;5.00;1.00
4308;DHT22;2167;53.448;9.984;2023-04-03T08:07:57;5.20;1.00
4308;DHT22;2167;53.448;9.984;2023-04-03T08:10:24;5.20;1.00
4308;DHT22;2167;53.448;9.984;2023-04-03T08:12:51;5.30;1.00
4308;DHT22;2167;53.448;9.984;2023-04-03T08:15:18;5.30;1.00
4308;DHT22;2167;53.448;9.984;2023-04-03T08:17:44;5.40;1.00
4308;DHT22;2167;53.448;9.984;2023-04-03T08:20:10;5.40;1.00
4308;DHT22;2167;53.448;9.984;2023-04-03T08:22:35;5.60;1.00
4308;DHT22;2167;53.448;9.984;2023-04-03T08:25:01;5.70;1.00
4308;DHT22;2167;53.448;9.984;2023-04-03T08:27:27;5.80;1.00
4308;DHT22;2167;53.448;9.984;2023-04-03T08:29:54;6.00;1.00
4308;DHT22;2167;53.448;9.984;2023-04-03T08:32:19;6.10;1.00
4308;DHT22;2167;53.448;9.984;2023-04-03T08:34:45;6.20;1.00
4308;DHT22;2167;53.448;9.984;2023-04-03T08:37:11;6.30;1.00
4308;DHT22;2167;53.448;9.984;2023-04-03T08:39:37;6.40;1.00
4308;DHT22;2167;53.448;9.984;2023-04-03T08:45:15;6.80;1.00
4308;DHT22;2167;53.448;9.984;2023-04-03T08:50:33;7.20;1.00
4308;DHT22;2167;53.448;9.984;2023-04-03T08:53:03;7.30;1.00
4308;DHT22;2167;53.448;9.984;2023-04-03T08:58:03;7.70;1.00
4308;DHT22;2167;53.448;9.984;2023-04-03T09:00:44;7.90;1.00
4308;DHT22;2167;53.448;9.984;2023-04-03T09:03:13;8.10;1.00
4308;DHT22;2167;53.448;9.984;2023-04-03T09:09:27;8.40;1.00
4308;DHT22;2167;53.448;9.984;2023-04-03T09:11:25;8.60;1.00
4308;DHT22;2167;53.448;9.984;2023-04-03T09:14:01;8.80;1.00
4308;DHT22;2167;53.448;9.984;2023-04-03T09:16:55;8.90;1.00
4308;DHT22;2167;53.448;9.984;2023-04-03T09:21:57;9.00;1.00
4308;DHT22;2167;53.448;9.984;2023-04-03T09:24:23;9.10;1.00
4308;DHT22;2167;53.448;9.984;2023-04-03T09:29:21;9.20;1.00
4308;DHT22;2167;53.448;9.984;2023-04-03T09:31:50;9.20;1.00
4308;DHT22;2167;53.448;9.984;2023-04-03T09:34:26;9.40;1.00
4308;DHT22;2167;53.448;9.984;2023-04-03T09:36:55;9.40;1.00
4308;DHT22;2167;53.448;9.984;2023-04-03T09:39:26;9.50;1.00
4308;DHT22;2167;53.448;9.984;2023-04-03T09:44:31;9.70;1.00
4308;DHT22;2167;53.448;9.984;2023-04-03T09:46:57;9.80;1.00
4308;DHT22;2167;53.448;9.984;2023-04-03T09:49:23;10.00;1.00
4308;DHT22;2167;53.448;9.984;2023-04-03T09:51:48;10.10;1.00
4308;DHT22;2167;53.448;9.984;2023-04-03T09:54:37;10.20;1.00
4308;DHT22;2167;53.448;9.984;2023-04-03T09:57:07;10.40;1.00
4308;DHT22;2167;53.448;9.984;2023-04-03T09:59:33;10.60;1.00
4308;DHT22;2167;53.448;9.984;2023-04-03T10:02:03;10.50;1.00
4308;DHT22;2167;53.448;9.984;2023-04-03T10:04:41;10.50;1.00
4308;DHT22;2167;53.448;9.984;2023-04-03T10:07:37;10.60;1.00
4308;DHT22;2167;53.448;9.984;2023-04-03T10:10:19;10.70;1.00
4308;DHT22;2167;53.448;9.984;2023-04-03T10:12:45;10.70;1.00
4308;DHT22;2167;53.448;9.984;2023-04-03T10:15:16;10.90;1.00
4308;DHT22;2167;53.448;9.984;2023-04-03T10:18:02;10.90;1.00
4308;DHT22;2167;53.448;9.984;2023-04-03T10:20:33;10.80;1.00
4308;DHT22;2167;53.448;9.984;2023-04-03T10:23:17;10.80;1.00
4308;DHT22;2167;53.448;9.984;2023-04-03T10:28:46;10.90;1.00
4308;DHT22;2167;53.448;9.984;2023-04-03T10:31:59;11.10;1.00
4308;DHT22;2167;53.448;9.984;2023-04-03T10:34:06;11.10;1.00
4308;DHT22;2167;53.448;9.984;2023-04-03T10:47:24;11.30;1.00
4308;DHT22;2167;53.448;9.984;2023-04-03T10:50:13;11.30;1.00
4308;DHT22;2167;53.448;9.984;2023-04-03T10:56:09;11.10;1.00
4308;DHT22;2167;53.448;9.984;2023-04-03T10:58:43;11.10;1.00
4308;DHT22;2167;53.448;9.984;2023-04-03T11:01:35;11.10;1.00
4308;DHT22;2167;53.448;9.984;2023-04-03T11:04:00;11.10;1.00
4308;DHT22;2167;53.448;9.984;2023-04-03T11:07:00;11.10;1.00
4308;DHT22;2167;53.448;9.984;2023-04-03T11:09:34;11.20;1.00
4308;DHT22;2167;53.448;9.984;2023-04-03T11:12:44;11.40;1.00
4308;DHT22;2167;53.448;9.984;2023-04-03T11:15:15;11.40;1.00
4308;DHT22;2167;53.448;9.984;2023-04-03T11:17:46;11.60;1.00
4308;DHT22;2167;53.448;9.984;2023-04-03T11:20:19;11.70;1.00
4308;DHT22;2167;53.448;9.984;2023-04-03T11:22:57;11.50;1.00
4308;DHT22;2167;53.448;9.984;2023-04-03T11:25:25;11.30;1.00
4308;DHT22;2167;53.448;9.984;2023-04-03T11:27:55;11.00;1.00
4308;DHT22;2167;53.448;9.984;2023-04-03T11:36:33;10.30;1.00
4308;DHT22;2167;53.448;9.984;2023-04-03T11:38:43;10.40;1.00
4308;DHT22;2167;53.448;9.984;2023-04-03T11:41:11;10.60;1.00
4308;DHT22;2167;53.448;9.984;2023-04-03T11:43:54;10.70;1.00
4308;DHT22;2167;53.448;9.984;2023-04-03T11:46:21;10.80;1.00
4308;DHT22;2167;53.448;9.984;2023-04-03T11:48:50;10.80;1.00
4308;DHT22;2167;53.448;9.984;2023-04-03T11:53:54;10.60;1.00
4308;DHT22;2167;53.448;9.984;2023-04-03T12:01:52;11.30;1.00
4308;DHT22;2167;53.448;9.984;2023-04-03T12:04:19;11.40;1.00
4308;DHT22;2167;53.448;9.984;2023-04-03T12:07:02;11.70;1.00
4308;DHT22;2167;53.448;9.984;2023-04-03T12:09:54;11.80;1.00
4308;DHT22;2167;53.448;9.984;2023-04-03T12:12:38;11.90;1.00
4308;DHT22;2167;53.448;9.984;2023-04-03T12:15:42;12.10;1.00
4308;DHT22;2167;53.448;9.984;2023-04-03T12:18:48;12.30;1.00
4308;DHT22;2167;53.448;9.984;2023-04-03T12:30:19;11.70;1.00
4308;DHT22;2167;53.448;9.984;2023-04-03T12:35:44;10.80;1.00
4308;DHT22;2167;53.448;9.984;2023-04-03T12:38:30;10.50;1.00
4308;DHT22;2167;53.448;9.984;2023-04-03T12:44:17;10.40;1.00
4308;DHT22;2167;53.448;9.984;2023-04-03T12:46:51;10.50;1.00
4308;DHT22;2167;53.448;9.984;2023-04-03T12:49:33;11.00;1.00
4308;DHT22;2167;53.448;9.984;2023-04-03T12:51:59;11.40;1.00
4308;DHT22;2167;53.448;9.984;2023-04-03T12:56:50;11.70;1.00
4308;DHT22;2167;53.448;9.984;2023-04-03T12:59:23;11.70;1.00
4308;DHT22;2167;53.448;9.984;2023-04-03T13:01:58;11.60;1.00
4308;DHT22;2167;53.448;9.984;2023-04-03T13:04:24;11.40;1.00
4308;DHT22;2167;53.448;9.984;2023-04-03T13:06:50;11.20;1.00
4308;DHT22;2167;53.448;9.984;2023-04-03T13:11:50;11.30;1.00
4308;DHT22;2167;53.448;9.984;2023-04-03T13:14:21;11.50;1.00
4308;DHT22;2167;53.448;9.984;2023-04-03T13:17:09;11.60;1.00
4308;DHT22;2167;53.448;9.984;2023-04-03T13:19:35;11.70;1.00
4308;DHT22;2167;53.448;9.984;2023-04-03T13:22:07;11.50;1.00
4308;DHT22;2167;53.448;9.984;2023-04-03T13:24:37;11.10;1.00
4308;DHT22;2167;53.448;9.984;2023-04-03T13:27:05;10.70;1.00
4308;DHT22;2167;53.448;9.984;2023-04-03T13:29:34;10.50;1.00
4308;DHT22;2167;53.448;9.984;2023-04-03T13:32:01;10.60;1.00
4308;DHT22;2167;53.448;9.984;2023-04-03T13:34:29;10.80;1.00
4308;DHT22;2167;53.448;9.984;2023-04-03T13:37:01;11.00;1.00
4308;DHT22;2167;53.448;9.984;2023-04-03T13:39:38;11.10;1.00
4308;DHT22;2167;53.448;9.984;2023-04-03T13:44:42;11.50;1.00
4308;DHT22;2167;53.448;9.984;2023-04-03T13:49:43;11.40;1.00
4308;DHT22;2167;53.448;9.984;2023-04-03T13:54:54;11.80;1.00
4308;DHT22;2167;53.448;9.984;2023-04-03T13:57:21;11.70;1.00
4308;DHT22;2167;53.448;9.984;2023-04-03T13:59:47;11.50;1.00
4308;DHT22;2167;53.448;9.984;2023-04-03T14:02:20;11.20;1.00
4308;DHT22;2167;53.448;9.984;2023-04-03T14:04:51;11.20;1.00
4308;DHT22;2167;53.448;9.984;2023-04-03T14:07:19;11.10;1.00
4308;DHT22;2167;53.448;9.984;2023-04-03T14:09:46;11.30;1.00
4308;DHT22;2167;53.448;9.984;2023-04-03T14:12:35;11.30;1.00
4308;DHT22;2167;53.448;9.984;2023-04-03T14:15:04;11.20;1.00
4308;DHT22;2167;53.448;9.984;2023-04-03T14:17:31;11.10;1.00
4308;DHT22;2167;53.448;9.984;2023-04-03T14:19:57;11.10;1.00
4308;DHT22;2167;53.448;9.984;2023-04-03T14:22:30;11.20;1.00
4308;DHT22;2167;53.448;9.984;2023-04-03T14:24:56;11.30;1.00
4308;DHT22;2167;53.448;9.984;2023-04-03T14:27:34;11.40;1.00
4308;DHT22;2167;53.448;9.984;2023-04-03T14:30:01;11.60;1.00
4308;DHT22;2167;53.448;9.984;2023-04-03T14:32:28;11.50;1.00
4308;DHT22;2167;53.448;9.984;2023-04-03T14:34:54;11.50;1.00
4308;DHT22;2167;53.448;9.984;2023-04-03T14:37:25;11.70;1.00
4308;DHT22;2167;53.448;9.984;2023-04-03T14:39:53;11.70;1.00
4308;DHT22;2167;53.448;9.984;2023-04-03T14:42:22;11.90;1.00
4308;DHT22;2167;53.448;9.984;2023-04-03T14:44:50;11.90;1.00
4308;DHT22;2167;53.448;9.984;2023-04-03T14:47:19;12.00;1.00
4308;DHT22;2167;53.448;9.984;2023-04-03T14:49:47;12.00;1.00
4308;DHT22;2167;53.448;9.984;2023-04-03T14:52:25;11.90;1.00
4308;DHT22;2167;53.448;9.984;2023-04-03T14:54:52;11.80;1.00
4308;DHT22;2167;53.448;9.984;2023-04-03T14:57:27;11.60;1.00
4308;DHT22;2167;53.448;9.984;2023-04-03T14:59:53;11.60;1.00
4308;DHT22;2167;53.448;9.984;2023-04-03T15:02:35;11.60;1.00
4308;DHT22;2167;53.448;9.984;2023-04-03T15:05:03;11.50;1.00
4308;DHT22;2167;53.448;9.984;2023-04-03T15:07:35;11.50;1.00
4308;DHT22;2167;53.448;9.984;2023-04-03T15:10:21;11.40;1.00
4308;DHT22;2167;53.448;9.984;2023-04-03T15:12:48;11.30;1.00
4308;DHT22;2167;53.448;9.984;2023-04-03T15:15:15;11.10;1.00
4308;DHT22;2167;53.448;9.984;2023-04-03T15:17:42;11.20;1.00
4308;DHT22;2167;53.448;9.984;2023-04-03T15:20:17;11.20;1.00
4308;DHT22;2167;53.448;9.984;2023-04-03T15:22:43;11.10;1.00
4308;DHT22;2167;53.448;9.984;2023-04-03T15:25:09;10.90;1.00
4308;DHT22;2167;53.448;9.984;2023-04-03T15:27:37;11.00;1.00
4308;DHT22;2167;53.448;9.984;2023-04-03T15:30:11;11.00;1.00
4308;DHT22;2167;53.448;9.984;2023-04-03T15:32:38;10.90;1.00
4308;DHT22;2167;53.448;9.984;2023-04-03T15:35:07;10.90;1.00
4308;DHT22;2167;53.448;9.984;2023-04-03T15:37:33;10.80;1.00
4308;DHT22;2167;53.448;9.984;2023-04-03T15:39:59;10.80;1.00
4308;DHT22;2167;53.448;9.984;2023-04-03T15:42:24;10.80;1.00
4308;DHT22;2167;53.448;9.984;2023-04-03T15:44:50;10.80;1.00
4308;DHT22;2167;53.448;9.984;2023-04-03T15:47:16;10.80;1.00
4308;DHT22;2167;53.448;9.984;2023-04-03T15:49:42;10.70;1.00
4308;DHT22;2167;53.448;9.984;2023-04-03T15:52:08;10.70;1.00
4308;DHT22;2167;53.448;9.984;2023-04-03T15:54:38;10.70;1.00
4308;DHT22;2167;53.448;9.984;2023-04-03T15:57:04;10.70;1.00
4308;DHT22;2167;53.448;9.984;2023-04-03T15:59:30;10.80;1.00
4308;DHT22;2167;53.448;9.984;2023-04-03T16:01:57;10.80;1.00
4308;DHT22;2167;53.448;9.984;2023-04-03T16:04:23;10.80;1.00
4308;DHT22;2167;53.448;9.984;2023-04-03T16:06:52;10.60;1.00
4308;DHT22;2167;53.448;9.984;2023-04-03T16:09:18;10.60;1.00
4308;DHT22;2167;53.448;9.984;2023-04-03T16:11:47;10.70;1.00
4308;DHT22;2167;53.448;9.984;2023-04-03T16:14:14;10.60;1.00
4308;DHT22;2167;53.448;9.984;2023-04-03T16:16:43;10.60;1.00
4308;DHT22;2167;53.448;9.984;2023-04-03T16:19:09;10.50;1.00
4308;DHT22;2167;53.448;9.984;2023-04-03T16:21:40;10.40;1.00
4308;DHT22;2167;53.448;9.984;2023-04-03T16:24:06;10.30;1.00
4308;DHT22;2167;53.448;9.984;2023-04-03T16:26:32;10.30;1.00
4308;DHT22;2167;53.448;9.984;2023-04-03T16:28:58;10.20;1.00
4308;DHT22;2167;53.448;9.984;2023-04-03T16:31:28;10.10;1.00
4308;DHT22;2167;53.448;9.984;2023-04-03T16:33:57;10.00;1.00
4308;DHT22;2167;53.448;9.984;2023-04-03T16:36:27;9.80;1.00
4308;DHT22;2167;53.448;9.984;2023-04-03T16:38:53;9.70;1.00
4308;DHT22;2167;53.448;9.984;2023-04-03T16:41:18;9.50;1.00
4308;DHT22;2167;53.448;9.984;2023-04-03T16:43:44;9.30;1.00
4308;DHT22;2167;53.448;9.984;2023-04-03T16:46:10;9.20;1.00
4308;DHT22;2167;53.448;9.984;2023-04-03T16:48:36;9.10;1.00
4308;DHT22;2167;53.448;9.984;2023-04-03T16:51:02;9.00;1.00
4308;DHT22;2167;53.448;9.984;2023-04-03T16:53:28;8.90;1.00
4308;DHT22;2167;53.448;9.984;2023-04-03T16:55:57;8.80;1.00
4308;DHT22;2167;53.448;9.984;2023-04-03T16:58:26;8.70;1.00
4308;DHT22;2167;53.448;9.984;2023-04-03T17:00:53;8.60;1.00
4308;DHT22;2167;53.448;9.984;2023-04-03T17:03:22;8.50;1.00
4308;DHT22;2167;53.448;9.984;2023-04-03T17:05:50;8.40;1.00
4308;DHT22;2167;53.448;9.984;2023-04-03T17:08:17;8.40;1.00
4308;DHT22;2167;53.448;9.984;2023-04-03T17:10:43;8.30;1.00
4308;DHT22;2167;53.448;9.984;2023-04-03T17:13:09;8.10;1.00
4308;DHT22;2167;53.448;9.984;2023-04-03T17:15:37;8.10;1.00
4308;DHT22;2167;53.448;9.984;2023-04-03T17:18:03;8.10;1.00
4308;DHT22;2167;53.448;9.984;2023-04-03T17:20:29;8.00;1.00
4308;DHT22;2167;53.448;9.984;2023-04-03T17:22:55;8.00;1.00
4308;DHT22;2167;53.448;9.984;2023-04-03T17:25:21;7.90;1.00
4308;DHT22;2167;53.448;9.984;2023-04-03T17:27:49;7.70;1.00
4308;DHT22;2167;53.448;9.984;2023-04-03T17:30:16;7.70;1.00
4308;DHT22;2167;53.448;9.984;2023-04-03T17:32:42;7.70;1.00
4308;DHT22;2167;53.448;9.984;2023-04-03T17:35:08;7.60;1.00
4308;DHT22;2167;53.448;9.984;2023-04-03T17:37:36;7.60;1.00
4308;DHT22;2167;53.448;9.984;2023-04-03T17:40:03;7.50;1.00
4308;DHT22;2167;53.448;9.984;2023-04-03T17:42:29;7.40;1.00
4308;DHT22;2167;53.448;9.984;2023-04-03T17:44:57;7.40;1.00
4308;DHT22;2167;53.448;9.984;2023-04-03T17:47:22;7.30;1.00
4308;DHT22;2167;53.448;9.984;2023-04-03T17:49:50;7.20;1.00
4308;DHT22;2167;53.448;9.984;2023-04-03T17:52:16;7.20;1.00
4308;DHT22;2167;53.448;9.984;2023-04-03T17:54:43;7.20;1.00
4308;DHT22;2167;53.448;9.984;2023-04-03T17:57:08;7.20;1.00
4308;DHT22;2167;53.448;9.984;2023-04-03T17:59:34;7.20;1.00